createdAt,value
2018-07-14T00:01:21.157Z,11.62
2018-07-14T00:03:48.862Z,11.55
2018-07-14T00:06:16.537Z,11.52
2018-07-14T00:08:44.210Z,11.50
2018-07-14T00:11:11.915Z,11.49
2018-07-14T00:13:39.585Z,11.43
2018-07-14T00:16:07.327Z,11.37
2018-07-14T00:18:35.080Z,11.26
2018-07-14T00:21:02.779Z,11.20
2018-07-14T00:23:30.439Z,11.15
2018-07-14T00:26:00.128Z,11.11
2018-07-14T00:28:28.366Z,11.03
2018-07-14T00:30:56.278Z,10.94
2018-07-14T00:33:24.056Z,10.89
2018-07-14T00:35:51.839Z,10.88
2018-07-14T00:38:19.561Z,10.87
2018-07-14T00:40:47.301Z,10.87
2018-07-14T00:43:14.978Z,10.84
2018-07-14T00:45:42.676Z,10.81
2018-07-14T00:48:10.352Z,10.74
2018-07-14T00:50:37.973Z,10.71
2018-07-14T00:53:05.889Z,10.68
2018-07-14T00:55:33.571Z,10.58
2018-07-14T00:58:01.189Z,10.47
2018-07-14T01:00:28.858Z,10.37
2018-07-14T01:02:56.498Z,10.31
2018-07-14T01:05:24.168Z,10.27
2018-07-14T01:07:51.880Z,10.22
2018-07-14T01:10:19.569Z,10.21
2018-07-14T01:12:47.221Z,10.20
2018-07-14T01:15:14.824Z,10.19
2018-07-14T01:17:42.520Z,10.18
2018-07-14T01:20:10.244Z,10.19
2018-07-14T01:22:37.884Z,10.15
2018-07-14T01:25:05.755Z,10.07
2018-07-14T01:27:33.387Z,10.03
2018-07-14T01:30:00.989Z,10.00
2018-07-14T01:32:28.607Z,10.02
2018-07-14T01:34:56.418Z,10.07
2018-07-14T01:37:24.026Z,10.11
2018-07-14T01:39:51.634Z,10.10
2018-07-14T01:42:19.372Z,10.08
2018-07-14T01:44:47.007Z,10.05
2018-07-14T01:47:14.659Z,9.98
2018-07-14T01:49:42.301Z,10.01
2018-07-14T01:52:09.976Z,10.05
2018-07-14T01:54:37.624Z,10.08
2018-07-14T01:57:05.357Z,10.08
2018-07-14T01:59:33.037Z,10.03
2018-07-14T02:02:00.693Z,10.02
2018-07-14T02:04:28.380Z,10.06
2018-07-14T02:06:56.031Z,10.13
2018-07-14T02:09:23.708Z,10.14
2018-07-14T02:11:51.368Z,10.18
2018-07-14T02:14:19.019Z,10.19
2018-07-14T02:16:46.698Z,10.13
2018-07-14T02:19:14.409Z,10.14
2018-07-14T02:21:42.101Z,10.16
2018-07-14T02:24:09.779Z,10.21
2018-07-14T02:26:37.408Z,10.24
2018-07-14T02:29:05.084Z,10.25
2018-07-14T02:31:32.800Z,10.26
2018-07-14T02:34:00.446Z,10.28
2018-07-14T02:36:28.118Z,10.29
2018-07-14T02:38:55.767Z,10.33
2018-07-14T02:41:23.429Z,10.41
2018-07-14T02:43:51.140Z,10.46
2018-07-14T02:46:18.794Z,10.54
2018-07-14T02:48:46.402Z,10.63
2018-07-14T02:51:14.044Z,10.71
2018-07-14T02:53:41.700Z,10.75
2018-07-14T02:56:09.347Z,10.81
2018-07-14T02:58:36.981Z,10.89
2018-07-14T03:01:04.629Z,10.98
2018-07-14T03:03:32.310Z,11.01
2018-07-14T03:06:00.123Z,11.04
2018-07-14T03:08:27.813Z,11.12
2018-07-14T03:10:55.485Z,11.17
2018-07-14T03:13:23.216Z,11.23
2018-07-14T03:15:50.877Z,11.33
2018-07-14T03:18:18.585Z,11.44
2018-07-14T03:20:46.263Z,11.54
2018-07-14T03:23:13.900Z,11.63
2018-07-14T03:25:41.528Z,11.74
2018-07-14T03:28:09.217Z,11.85
2018-07-14T03:30:36.842Z,12.02
2018-07-14T03:33:04.587Z,12.19
2018-07-14T03:35:32.600Z,12.38
2018-07-14T03:38:00.272Z,12.64
2018-07-14T03:40:27.908Z,12.88
2018-07-14T03:42:55.598Z,13.16
2018-07-14T03:45:23.260Z,13.44
2018-07-14T03:47:50.913Z,13.79
2018-07-14T03:50:18.596Z,14.20
2018-07-14T03:52:46.238Z,14.65
2018-07-14T03:55:13.907Z,15.14
2018-07-14T03:57:41.556Z,15.62
2018-07-14T04:00:09.230Z,16.00
2018-07-14T04:02:36.884Z,16.40
2018-07-14T04:05:04.856Z,16.81
2018-07-14T04:07:32.736Z,17.24
2018-07-14T04:10:00.344Z,17.58
2018-07-14T04:12:27.988Z,17.85
2018-07-14T04:14:55.696Z,18.11
2018-07-14T04:17:23.336Z,18.41
2018-07-14T04:19:51.025Z,18.64
2018-07-14T04:22:18.710Z,18.99
2018-07-14T04:24:46.320Z,19.22
2018-07-14T04:27:14.011Z,19.55
2018-07-14T04:29:41.688Z,19.79
2018-07-14T04:32:09.372Z,20.22
2018-07-14T04:34:37.042Z,20.61
2018-07-14T04:37:04.714Z,20.86
2018-07-14T04:39:32.345Z,21.05
2018-07-14T04:42:00.009Z,21.53
2018-07-14T04:44:27.669Z,22.00
2018-07-14T04:46:55.310Z,22.31
2018-07-14T04:49:23.052Z,22.65
2018-07-14T04:51:50.645Z,23.16
2018-07-14T04:54:18.231Z,23.29
2018-07-14T04:56:45.880Z,23.52
2018-07-14T04:59:13.541Z,23.72
2018-07-14T05:01:41.186Z,23.82
2018-07-14T05:04:08.959Z,24.03
2018-07-14T05:06:36.652Z,24.37
2018-07-14T05:09:04.888Z,24.59
2018-07-14T05:11:32.563Z,24.75
2018-07-14T05:14:00.241Z,25.06
2018-07-14T05:16:27.949Z,25.35
2018-07-14T05:18:55.608Z,25.53
2018-07-14T05:21:23.267Z,25.72
2018-07-14T05:23:50.950Z,25.92
2018-07-14T05:26:18.944Z,26.24
2018-07-14T05:28:46.607Z,26.29
2018-07-14T05:31:14.299Z,26.64
2018-07-14T05:33:41.996Z,26.98
2018-07-14T05:36:09.718Z,27.26
2018-07-14T05:38:37.439Z,27.64
2018-07-14T05:41:05.229Z,27.75
2018-07-14T05:43:32.957Z,28.00
2018-07-14T05:46:00.607Z,28.22
2018-07-14T05:48:28.303Z,28.43
2018-07-14T05:50:56.011Z,28.70
2018-07-14T05:53:23.686Z,28.77
2018-07-14T05:55:51.361Z,28.71
2018-07-14T05:58:19.067Z,28.98
2018-07-14T06:00:46.719Z,29.19
2018-07-14T06:03:14.424Z,29.26
2018-07-14T06:05:42.149Z,29.15
2018-07-14T06:08:09.749Z,29.39
2018-07-14T06:10:37.390Z,29.78
2018-07-14T06:13:05.298Z,29.71
2018-07-14T06:15:32.992Z,29.32
2018-07-14T06:18:00.675Z,29.67
2018-07-14T06:20:28.333Z,29.84
2018-07-14T06:22:56.083Z,30.34
2018-07-14T06:25:23.714Z,30.23
2018-07-14T06:27:51.356Z,30.22
2018-07-14T06:30:19.084Z,30.47
2018-07-14T06:32:46.769Z,30.73
2018-07-14T06:35:14.573Z,30.89
2018-07-14T06:37:42.360Z,31.12
2018-07-14T06:40:10.068Z,30.83
2018-07-14T06:42:37.847Z,30.80
2018-07-14T06:45:05.717Z,30.58
2018-07-14T06:47:33.480Z,30.87
2018-07-14T06:50:01.200Z,30.72
2018-07-14T06:52:28.987Z,30.80
2018-07-14T06:54:57.035Z,30.86
2018-07-14T06:57:24.696Z,30.96
2018-07-14T06:59:52.354Z,30.99
2018-07-14T07:02:20.031Z,31.30
2018-07-14T07:04:48.117Z,31.59
2018-07-14T07:07:15.955Z,31.09
2018-07-14T07:09:43.669Z,30.73
2018-07-14T07:12:11.386Z,30.99
2018-07-14T07:14:39.169Z,31.33
2018-07-14T07:17:06.831Z,31.30
2018-07-14T07:19:34.471Z,31.57
2018-07-14T07:22:02.097Z,31.32
2018-07-14T07:24:29.765Z,31.42
2018-07-14T07:26:57.444Z,31.97
2018-07-14T07:29:25.089Z,32.18
2018-07-14T07:31:52.822Z,31.48
2018-07-14T07:34:20.551Z,31.80
2018-07-14T07:36:48.257Z,31.85
2018-07-14T07:39:15.965Z,32.33
2018-07-14T07:41:43.708Z,32.66
2018-07-14T07:44:11.467Z,33.04
2018-07-14T07:46:39.101Z,33.17
2018-07-14T07:49:06.798Z,33.33
2018-07-14T07:51:34.434Z,32.40
2018-07-14T07:54:02.088Z,31.85
2018-07-14T07:56:29.767Z,31.69
2018-07-14T07:58:57.408Z,32.01
2018-07-14T08:01:25.045Z,32.02
2018-07-14T08:03:52.757Z,31.65
2018-07-14T08:06:20.477Z,31.38
2018-07-14T08:08:48.184Z,31.65
2018-07-14T08:11:15.886Z,32.13
2018-07-14T08:13:43.530Z,32.74
2018-07-14T08:16:11.344Z,32.67
2018-07-14T08:18:38.991Z,33.02
2018-07-14T08:21:06.756Z,33.48
2018-07-14T08:23:34.460Z,33.13
2018-07-14T08:26:02.230Z,33.06
2018-07-14T08:28:29.931Z,33.15
2018-07-14T08:30:57.647Z,32.84
2018-07-14T08:33:25.290Z,32.93
2018-07-14T08:35:53.007Z,33.30
2018-07-14T08:38:20.836Z,32.87
2018-07-14T08:40:48.547Z,33.39
2018-07-14T08:43:16.217Z,33.64
2018-07-14T08:45:43.897Z,33.75
2018-07-14T08:48:11.577Z,33.09
2018-07-14T08:50:39.246Z,33.00
2018-07-14T08:53:06.923Z,33.35
2018-07-14T08:55:34.591Z,33.20
2018-07-14T08:58:02.268Z,33.48
2018-07-14T09:00:29.906Z,33.61
2018-07-14T09:02:57.527Z,33.42
2018-07-14T09:05:25.200Z,33.61
2018-07-14T09:07:53.022Z,33.16
2018-07-14T09:10:20.673Z,33.51
2018-07-14T09:12:48.320Z,33.67
2018-07-14T09:15:16.045Z,33.76
2018-07-14T09:17:43.720Z,33.61
2018-07-14T09:20:11.402Z,33.44
2018-07-14T09:22:39.114Z,33.56
2018-07-14T09:25:06.791Z,33.73
2018-07-14T09:27:34.472Z,33.71
2018-07-14T09:30:02.202Z,33.87
2018-07-14T09:32:29.963Z,33.82
2018-07-14T09:34:57.658Z,34.05
2018-07-14T09:37:25.360Z,34.26
2018-07-14T09:39:53.060Z,33.66
2018-07-14T09:42:20.768Z,33.17
2018-07-14T09:44:48.446Z,33.42
2018-07-14T09:47:16.188Z,33.84
2018-07-14T09:49:43.913Z,34.22
2018-07-14T09:52:11.576Z,34.12
2018-07-14T09:54:39.267Z,33.90
2018-07-14T09:57:07.364Z,33.56
2018-07-14T09:59:35.054Z,33.69
2018-07-14T10:02:02.758Z,33.52
2018-07-14T10:04:30.542Z,33.79
2018-07-14T10:06:58.218Z,33.77
2018-07-14T10:09:25.942Z,33.67
2018-07-14T10:11:53.591Z,33.98
2018-07-14T10:14:21.235Z,33.73
2018-07-14T10:16:48.922Z,33.66
2018-07-14T10:19:16.623Z,33.81
2018-07-14T10:21:44.253Z,33.52
2018-07-14T10:24:12.114Z,33.32
2018-07-14T10:26:39.830Z,33.56
2018-07-14T10:29:07.623Z,33.82
2018-07-14T10:31:35.246Z,33.45
2018-07-14T10:34:03.122Z,33.35
2018-07-14T10:36:30.736Z,33.42
2018-07-14T10:38:58.437Z,33.66
2018-07-14T10:41:26.287Z,33.99
2018-07-14T10:43:54.021Z,33.57
2018-07-14T10:46:21.702Z,33.65
2018-07-14T10:48:49.380Z,34.11
2018-07-14T10:51:17.101Z,33.91
2018-07-14T10:53:44.871Z,33.45
2018-07-14T10:56:12.631Z,33.40
2018-07-14T10:58:40.819Z,33.66
2018-07-14T11:01:08.492Z,33.19
2018-07-14T11:03:36.210Z,33.42
2018-07-14T11:06:03.918Z,33.06
2018-07-14T11:08:31.588Z,33.06
2018-07-14T11:10:59.286Z,32.96
2018-07-14T11:13:27.077Z,33.36
2018-07-14T11:15:54.773Z,33.42
2018-07-14T11:18:22.441Z,32.96
2018-07-14T11:20:50.160Z,32.82
2018-07-14T11:23:17.905Z,32.91
2018-07-14T11:25:45.585Z,33.19
2018-07-14T11:28:13.280Z,32.76
2018-07-14T11:30:41.009Z,32.50
2018-07-14T11:33:08.692Z,32.30
2018-07-14T11:35:36.332Z,32.74
2018-07-14T11:38:04.001Z,32.92
2018-07-14T11:40:31.630Z,32.64
2018-07-14T11:42:59.268Z,32.94
2018-07-14T11:45:27.027Z,33.28
2018-07-14T11:47:54.735Z,33.22
2018-07-14T11:50:22.489Z,33.25
2018-07-14T11:52:50.359Z,32.93
2018-07-14T11:55:18.073Z,32.52
2018-07-14T11:57:45.804Z,32.65
2018-07-14T12:00:13.477Z,32.68
2018-07-14T12:02:41.248Z,32.57
2018-07-14T12:05:08.980Z,32.86
2018-07-14T12:07:36.750Z,32.90
2018-07-14T12:10:04.748Z,33.23
2018-07-14T12:12:32.408Z,33.34
2018-07-14T12:15:00.105Z,32.69
2018-07-14T12:17:27.895Z,32.12
2018-07-14T12:19:55.601Z,31.12
2018-07-14T12:22:23.396Z,30.18
2018-07-14T12:24:51.049Z,30.00
2018-07-14T12:27:18.784Z,30.18
2018-07-14T12:29:46.565Z,29.83
2018-07-14T12:32:14.221Z,29.48
2018-07-14T12:34:41.902Z,29.18
2018-07-14T12:37:09.616Z,29.29
2018-07-14T12:39:37.289Z,29.27
2018-07-14T12:42:05.126Z,29.02
2018-07-14T12:44:33.053Z,28.92
2018-07-14T12:47:01.535Z,29.44
2018-07-14T12:49:29.189Z,29.37
2018-07-14T12:51:56.853Z,28.68
2018-07-14T12:54:24.627Z,28.64
2018-07-14T12:56:52.295Z,28.18
2018-07-14T12:59:20.002Z,28.02
2018-07-14T13:01:47.713Z,28.44
2018-07-14T13:04:15.432Z,28.88
2018-07-14T13:06:43.107Z,29.15
2018-07-14T13:09:10.791Z,29.48
2018-07-14T13:11:38.572Z,29.46
2018-07-14T13:14:06.329Z,29.24
2018-07-14T13:16:34.371Z,28.85
2018-07-14T13:19:02.611Z,28.45
2018-07-14T13:21:30.270Z,28.37
2018-07-14T13:23:57.965Z,28.18
2018-07-14T13:26:25.685Z,28.28
2018-07-14T13:28:53.309Z,28.68
2018-07-14T13:31:21.046Z,28.98
2018-07-14T13:33:48.679Z,29.05
2018-07-14T13:36:16.362Z,29.22
2018-07-14T13:38:51.265Z,28.84
2018-07-14T13:41:11.745Z,28.46
2018-07-14T13:43:39.405Z,28.47
2018-07-14T13:46:07.021Z,28.51
2018-07-14T13:48:34.963Z,28.53
2018-07-14T13:51:02.682Z,28.87
2018-07-14T13:53:30.412Z,29.07
2018-07-14T13:55:58.161Z,29.36
2018-07-14T13:58:25.968Z,29.52
2018-07-14T14:00:53.608Z,29.39
2018-07-14T14:03:21.358Z,29.63
2018-07-14T14:05:49.014Z,29.78
2018-07-14T14:08:16.699Z,29.76
2018-07-14T14:10:44.446Z,29.53
2018-07-14T14:13:12.167Z,29.27
2018-07-14T14:15:40.001Z,28.80
2018-07-14T14:18:07.749Z,28.30
2018-07-14T14:20:35.546Z,28.32
2018-07-14T14:23:03.277Z,28.48
2018-07-14T14:25:30.882Z,28.50
2018-07-14T14:27:58.550Z,28.65
2018-07-14T14:30:26.217Z,28.57
2018-07-14T14:32:53.975Z,28.47
2018-07-14T14:35:21.713Z,28.51
2018-07-14T14:37:49.399Z,28.79
2018-07-14T14:40:17.163Z,28.94
2018-07-14T14:42:44.925Z,28.97
2018-07-14T14:45:12.643Z,28.79
2018-07-14T14:47:40.392Z,28.46
2018-07-14T14:50:08.157Z,28.36
2018-07-14T14:52:35.808Z,28.10
2018-07-14T14:55:03.648Z,27.84
2018-07-14T14:57:31.388Z,27.55
2018-07-14T15:00:00.005Z,27.40
2018-07-14T15:02:27.739Z,27.27
2018-07-14T15:04:55.401Z,27.04
2018-07-14T15:07:23.132Z,26.92
2018-07-14T15:09:50.893Z,26.90
2018-07-14T15:12:18.564Z,26.76
2018-07-14T15:14:46.258Z,26.60
2018-07-14T15:17:13.912Z,26.46
2018-07-14T15:19:41.606Z,26.29
2018-07-14T15:22:09.334Z,26.25
2018-07-14T15:24:37.004Z,26.17
2018-07-14T15:27:04.746Z,26.09
2018-07-14T15:29:32.404Z,25.95
2018-07-14T15:32:00.157Z,25.88
2018-07-14T15:34:27.920Z,25.77
2018-07-14T15:36:55.731Z,25.70
2018-07-14T15:39:23.481Z,25.53
2018-07-14T15:41:51.156Z,25.45
2018-07-14T15:44:18.864Z,25.31
2018-07-14T15:46:46.567Z,25.23
2018-07-14T15:49:14.578Z,25.27
2018-07-14T15:51:42.356Z,25.30
2018-07-14T15:54:10.089Z,25.38
2018-07-14T15:56:37.830Z,25.40
2018-07-14T15:59:05.545Z,25.37
2018-07-14T16:01:33.344Z,25.35
2018-07-14T16:04:01.036Z,25.31
2018-07-14T16:06:28.801Z,25.27
2018-07-14T16:08:56.536Z,25.18
2018-07-14T16:11:24.268Z,25.11
2018-07-14T16:13:51.973Z,25.11
2018-07-14T16:16:19.721Z,25.05
2018-07-14T16:18:47.542Z,25.02
2018-07-14T16:21:15.250Z,24.95
2018-07-14T16:23:42.973Z,24.88
2018-07-14T16:26:10.631Z,24.82
2018-07-14T16:28:38.324Z,24.79
2018-07-14T16:31:06.021Z,24.71
2018-07-14T16:33:34.585Z,24.66
2018-07-14T16:36:02.557Z,24.61
2018-07-14T16:38:30.373Z,24.58
2018-07-14T16:40:58.212Z,24.55
2018-07-14T16:43:25.957Z,24.51
2018-07-14T16:45:53.667Z,24.46
2018-07-14T16:48:21.347Z,24.43
2018-07-14T16:50:49.117Z,24.36
2018-07-14T16:53:16.806Z,24.31
2018-07-14T16:55:44.523Z,24.27
2018-07-14T16:58:12.269Z,24.23
2018-07-14T17:00:40.073Z,24.18
2018-07-14T17:03:07.839Z,24.09
2018-07-14T17:05:35.517Z,24.02
2018-07-14T17:08:03.206Z,23.97
2018-07-14T17:10:31.244Z,23.92
2018-07-14T17:12:58.907Z,23.86
2018-07-14T17:15:27.589Z,23.82
2018-07-14T17:17:55.289Z,23.74
2018-07-14T17:20:22.994Z,23.70
2018-07-14T17:22:50.717Z,23.67
2018-07-14T17:25:18.459Z,23.63
2018-07-14T17:27:46.242Z,23.54
2018-07-14T17:30:13.960Z,23.52
2018-07-14T17:32:41.646Z,23.43
2018-07-14T17:35:09.476Z,23.34
2018-07-14T17:37:37.140Z,23.32
2018-07-14T17:40:05.021Z,23.31
2018-07-14T17:42:32.733Z,23.28
2018-07-14T17:45:00.431Z,23.22
2018-07-14T17:47:28.153Z,23.17
2018-07-14T17:49:55.818Z,23.12
2018-07-14T17:52:23.567Z,23.11
2018-07-14T17:54:51.286Z,23.07
2018-07-14T17:57:19.024Z,23.04
2018-07-14T17:59:46.718Z,22.97
2018-07-14T18:02:14.488Z,22.90
2018-07-14T18:04:42.381Z,22.85
2018-07-14T18:07:10.074Z,22.76
2018-07-14T18:09:37.763Z,22.69
2018-07-14T18:12:05.501Z,22.60
2018-07-14T18:14:33.203Z,22.53
2018-07-14T18:17:00.905Z,22.52
2018-07-14T18:19:28.656Z,22.47
2018-07-14T18:21:56.392Z,22.41
2018-07-14T18:24:24.115Z,22.41
2018-07-14T18:26:51.865Z,22.41
2018-07-14T18:29:19.614Z,22.36
2018-07-14T18:31:47.356Z,22.29
2018-07-14T18:34:15.471Z,22.20
2018-07-14T18:36:43.825Z,22.18
2018-07-14T18:39:11.548Z,22.11
2018-07-14T18:41:39.267Z,22.06
2018-07-14T18:44:06.970Z,22.04
2018-07-14T18:46:35.117Z,21.95
2018-07-14T18:49:02.856Z,21.86
2018-07-14T18:51:30.674Z,21.81
2018-07-14T18:53:58.664Z,21.76
2018-07-14T18:56:26.775Z,21.65
2018-07-14T18:58:54.593Z,21.57
2018-07-14T19:01:22.314Z,21.50
2018-07-14T19:03:50.246Z,21.44
2018-07-14T19:06:17.946Z,21.43
2018-07-14T19:08:45.660Z,21.40
2018-07-14T19:11:13.368Z,21.37
2018-07-14T19:13:41.081Z,21.31
2018-07-14T19:16:08.742Z,21.27
2018-07-14T19:18:36.455Z,21.18
2018-07-14T19:21:04.495Z,21.10
2018-07-14T19:23:32.286Z,21.03
2018-07-14T19:26:00.091Z,20.96
2018-07-14T19:28:27.757Z,20.88
2018-07-14T19:30:55.538Z,20.81
2018-07-14T19:33:23.285Z,20.73
2018-07-14T19:35:51.525Z,20.66
2018-07-14T19:38:19.218Z,20.66
2018-07-14T19:40:46.934Z,20.58
2018-07-14T19:43:14.641Z,20.52
2018-07-14T19:45:42.372Z,20.44
2018-07-14T19:48:10.132Z,20.35
2018-07-14T19:50:37.810Z,20.26
2018-07-14T19:53:05.536Z,20.20
2018-07-14T19:55:35.665Z,20.15
2018-07-14T19:58:00.981Z,20.11
2018-07-14T20:00:28.733Z,20.02
2018-07-14T20:02:56.441Z,19.91
2018-07-14T20:05:24.308Z,19.75
2018-07-14T20:07:52.009Z,19.62
2018-07-14T20:10:19.716Z,19.50
2018-07-14T20:12:47.459Z,19.37
2018-07-14T20:15:15.286Z,19.32
2018-07-14T20:17:42.962Z,19.20
2018-07-14T20:20:10.856Z,19.04
2018-07-14T20:22:39.038Z,18.91
2018-07-14T20:25:06.805Z,18.78
2018-07-14T20:27:34.544Z,18.68
2018-07-14T20:30:02.341Z,18.57
2018-07-14T20:32:29.994Z,18.48
2018-07-14T20:34:57.712Z,18.41
2018-07-14T20:37:25.445Z,18.32
2018-07-14T20:39:53.212Z,18.23
2018-07-14T20:42:20.890Z,18.16
2018-07-14T20:44:48.622Z,18.08
2018-07-14T20:47:16.446Z,17.97
2018-07-14T20:49:44.170Z,17.85
2018-07-14T20:52:11.862Z,17.81
2018-07-14T20:54:39.704Z,17.72
2018-07-14T20:57:07.390Z,17.64
2018-07-14T20:59:35.054Z,17.53
2018-07-14T21:02:02.773Z,17.41
2018-07-14T21:04:30.494Z,17.23
2018-07-14T21:06:58.215Z,17.08
2018-07-14T21:09:25.912Z,16.99
2018-07-14T21:11:53.557Z,16.90
2018-07-14T21:14:21.341Z,16.81
2018-07-14T21:16:48.985Z,16.69
2018-07-14T21:19:16.813Z,16.54
2018-07-14T21:21:44.485Z,16.46
2018-07-14T21:24:12.167Z,16.36
2018-07-14T21:26:39.889Z,16.28
2018-07-14T21:29:07.601Z,16.19
2018-07-14T21:31:35.273Z,16.07
2018-07-14T21:34:02.937Z,15.96
2018-07-14T21:36:30.603Z,15.89
2018-07-14T21:38:58.281Z,15.81
2018-07-14T21:41:25.957Z,15.73
2018-07-14T21:43:54.645Z,15.66
2018-07-14T21:46:22.310Z,15.58
2018-07-14T21:48:50.018Z,15.49
2018-07-14T21:51:17.720Z,15.37
2018-07-14T21:53:45.411Z,15.29
2018-07-14T21:56:13.106Z,15.25
2018-07-14T21:58:40.763Z,15.18
2018-07-14T22:01:14.082Z,15.07
2018-07-14T22:03:41.876Z,14.89
2018-07-14T22:06:09.567Z,14.74
2018-07-14T22:08:37.231Z,14.61
2018-07-14T22:11:04.915Z,14.48
2018-07-14T22:13:32.673Z,14.38
2018-07-14T22:16:00.358Z,14.29
2018-07-14T22:18:28.026Z,14.26
2018-07-14T22:20:55.744Z,14.18
2018-07-14T22:23:23.425Z,14.10
2018-07-14T22:25:51.124Z,14.03
2018-07-14T22:28:18.790Z,13.93
2018-07-14T22:30:46.602Z,13.82
2018-07-14T22:33:14.324Z,13.73
2018-07-14T22:35:42.006Z,13.66
2018-07-14T22:38:09.716Z,13.60
2018-07-14T22:40:37.399Z,13.53
2018-07-14T22:43:05.393Z,13.45
2018-07-14T22:45:33.034Z,13.36
2018-07-14T22:48:00.722Z,13.30
2018-07-14T22:50:28.443Z,13.25
2018-07-14T22:52:56.131Z,13.18
2018-07-14T22:55:23.756Z,13.10
2018-07-14T22:57:51.386Z,13.07
2018-07-14T23:00:19.071Z,13.03
2018-07-14T23:02:46.694Z,12.98
2018-07-14T23:05:14.329Z,12.93
2018-07-14T23:07:41.981Z,12.82
2018-07-14T23:10:09.694Z,12.74
2018-07-14T23:12:37.346Z,12.64
2018-07-14T23:15:05.093Z,12.55
2018-07-14T23:17:32.776Z,12.53
2018-07-14T23:20:00.434Z,12.50
2018-07-14T23:22:28.168Z,12.43
2018-07-14T23:24:55.851Z,12.37
2018-07-14T23:27:23.912Z,12.34
2018-07-14T23:29:51.729Z,12.34
2018-07-14T23:32:19.414Z,12.31
2018-07-14T23:34:47.097Z,12.25
2018-07-14T23:37:14.848Z,12.23
2018-07-14T23:39:42.540Z,12.17
2018-07-14T23:42:10.146Z,12.07
2018-07-14T23:44:37.816Z,11.99
2018-07-14T23:47:05.547Z,11.91
2018-07-14T23:49:33.187Z,11.82
2018-07-14T23:52:00.837Z,11.70
2018-07-14T23:54:28.500Z,11.64
2018-07-14T23:56:56.114Z,11.59
2018-07-14T23:59:23.783Z,11.54
